createdAt,value
2018-09-14T00:01:28.922Z,100493.00
2018-09-14T00:03:56.430Z,100497.00
2018-09-14T00:06:23.975Z,100493.00
2018-09-14T00:08:51.500Z,100496.00
2018-09-14T00:11:19.021Z,100487.00
2018-09-14T00:13:46.532Z,100481.00
2018-09-14T00:16:14.026Z,100480.00
2018-09-14T00:18:41.533Z,100487.00
2018-09-14T00:21:09.043Z,100487.00
2018-09-14T00:23:36.539Z,100478.00
2018-09-14T00:26:04.034Z,100489.00
2018-09-14T00:28:31.523Z,100479.00
2018-09-14T00:30:59.036Z,100476.00
2018-09-14T00:33:26.536Z,100469.00
2018-09-14T00:35:54.035Z,100473.00
2018-09-14T00:38:21.529Z,100466.00
2018-09-14T00:40:49.039Z,100485.00
2018-09-14T00:43:16.549Z,100475.00
2018-09-14T00:45:44.056Z,100472.00
2018-09-14T00:48:11.759Z,100472.00
2018-09-14T00:50:39.246Z,100480.00
2018-09-14T00:53:06.771Z,100487.00
2018-09-14T00:55:34.287Z,100484.00
2018-09-14T00:58:01.792Z,100472.00
2018-09-14T01:00:29.279Z,100473.00
2018-09-14T01:02:56.783Z,100468.00
2018-09-14T01:05:24.280Z,100466.00
2018-09-14T01:07:51.783Z,100471.00
2018-09-14T01:10:19.290Z,100470.00
2018-09-14T01:12:46.785Z,100475.00
2018-09-14T01:15:14.284Z,100468.00
2018-09-14T01:17:41.787Z,100460.00
2018-09-14T01:20:09.289Z,100467.00
2018-09-14T01:22:36.804Z,100455.00
2018-09-14T01:25:04.310Z,100450.00
2018-09-14T01:27:31.819Z,100454.00
2018-09-14T01:29:59.311Z,100454.00
2018-09-14T01:32:26.807Z,100452.00
2018-09-14T01:34:54.299Z,100453.00
2018-09-14T01:37:21.787Z,100444.00
2018-09-14T01:39:49.289Z,100450.00
2018-09-14T01:42:16.803Z,100450.00
2018-09-14T01:44:44.300Z,100439.00
2018-09-14T01:47:11.815Z,100438.00
2018-09-14T01:49:39.315Z,100446.00
2018-09-14T01:52:06.829Z,100445.00
2018-09-14T01:54:34.316Z,100449.00
2018-09-14T01:57:01.803Z,100454.00
2018-09-14T01:59:29.300Z,100443.00
2018-09-14T02:01:56.795Z,100460.00
2018-09-14T02:04:24.299Z,100459.00
2018-09-14T02:06:51.788Z,100449.00
2018-09-14T02:09:19.279Z,100454.00
2018-09-14T02:11:46.812Z,100451.00
2018-09-14T02:14:14.339Z,100453.00
2018-09-14T02:16:41.876Z,100449.00
2018-09-14T02:19:09.424Z,100431.00
2018-09-14T02:21:36.960Z,100429.00
2018-09-14T02:24:04.523Z,100439.00
2018-09-14T02:26:32.075Z,100439.00
2018-09-14T02:28:59.599Z,100447.00
2018-09-14T02:31:27.140Z,100445.00
2018-09-14T02:33:54.676Z,100449.00
2018-09-14T02:36:22.225Z,100450.00
2018-09-14T02:38:49.759Z,100458.00
2018-09-14T02:41:17.307Z,100454.00
2018-09-14T02:43:44.864Z,100449.00
2018-09-14T02:46:12.389Z,100440.00
2018-09-14T02:48:39.949Z,100438.00
2018-09-14T02:51:07.492Z,100440.00
2018-09-14T02:53:35.054Z,100443.00
2018-09-14T02:56:02.600Z,100439.00
2018-09-14T02:58:30.136Z,100447.00
2018-09-14T03:00:57.682Z,100441.00
2018-09-14T03:03:25.239Z,100444.00
2018-09-14T03:05:52.782Z,100444.00
2018-09-14T03:08:20.316Z,100439.00
2018-09-14T03:10:47.858Z,100444.00
2018-09-14T03:13:15.449Z,100443.00
2018-09-14T03:15:42.979Z,100438.00
2018-09-14T03:18:10.523Z,100447.00
2018-09-14T03:20:38.059Z,100446.00
2018-09-14T03:23:05.616Z,100453.00
2018-09-14T03:25:33.158Z,100449.00
2018-09-14T03:28:00.699Z,100456.00
2018-09-14T03:30:28.224Z,100458.00
2018-09-14T03:32:55.764Z,100462.00
2018-09-14T03:35:23.302Z,100460.00
2018-09-14T03:37:50.830Z,100464.00
2018-09-14T03:40:18.384Z,100453.00
2018-09-14T03:42:45.929Z,100460.00
2018-09-14T03:45:13.481Z,100461.00
2018-09-14T03:47:41.021Z,100458.00
2018-09-14T03:50:08.577Z,100454.00
2018-09-14T03:52:36.096Z,100450.00
2018-09-14T03:55:03.653Z,100455.00
2018-09-14T03:57:31.164Z,100459.00
2018-09-14T03:59:58.706Z,100460.00
2018-09-14T04:02:26.243Z,100463.00
2018-09-14T04:04:53.851Z,100458.00
2018-09-14T04:07:21.385Z,100457.00
2018-09-14T04:09:48.924Z,100460.00
2018-09-14T04:12:16.578Z,100462.00
2018-09-14T04:14:44.108Z,100460.00
2018-09-14T04:17:11.805Z,100461.00
2018-09-14T04:19:39.347Z,100460.00
2018-09-14T04:22:06.892Z,100460.00
2018-09-14T04:24:34.418Z,100463.00
2018-09-14T04:27:01.965Z,100466.00
2018-09-14T04:29:29.517Z,100464.00
2018-09-14T04:31:57.052Z,100459.00
2018-09-14T04:34:24.594Z,100473.00
2018-09-14T04:36:52.144Z,100470.00
2018-09-14T04:39:19.680Z,100467.00
2018-09-14T04:41:47.208Z,100478.00
2018-09-14T04:44:14.747Z,100469.00
2018-09-14T04:46:42.292Z,100473.00
2018-09-14T04:49:09.813Z,100480.00
2018-09-14T04:51:37.356Z,100474.00
2018-09-14T04:54:04.883Z,100471.00
2018-09-14T04:56:32.403Z,100462.00
2018-09-14T04:58:59.946Z,100471.00
2018-09-14T05:01:27.486Z,100468.00
2018-09-14T05:03:55.039Z,100476.00
2018-09-14T05:06:22.584Z,100473.00
2018-09-14T05:08:50.133Z,100474.00
2018-09-14T05:11:17.643Z,100474.00
2018-09-14T05:13:45.149Z,100472.00
2018-09-14T05:16:12.640Z,100485.00
2018-09-14T05:18:40.144Z,100480.00
2018-09-14T05:21:07.648Z,100484.00
2018-09-14T05:23:35.143Z,100481.00
2018-09-14T05:26:02.647Z,100485.00
2018-09-14T05:28:30.145Z,100486.00
2018-09-14T05:30:57.648Z,100498.00
2018-09-14T05:33:25.135Z,100495.00
2018-09-14T05:35:52.630Z,100495.00
2018-09-14T05:38:20.189Z,100498.00
2018-09-14T05:40:47.632Z,100497.00
2018-09-14T05:43:15.130Z,100492.00
2018-09-14T05:45:42.657Z,100488.00
2018-09-14T05:48:10.144Z,100496.00
2018-09-14T05:50:37.635Z,100499.00
2018-09-14T05:53:05.144Z,100506.00
2018-09-14T05:55:32.652Z,100502.00
2018-09-14T05:58:00.152Z,100507.00
2018-09-14T06:00:28.204Z,100507.00
2018-09-14T06:02:55.747Z,100508.00
2018-09-14T06:05:23.281Z,100509.00
2018-09-14T06:07:50.785Z,100510.00
2018-09-14T06:10:18.332Z,100511.00
2018-09-14T06:12:45.860Z,100516.00
2018-09-14T06:15:13.400Z,100513.00
2018-09-14T06:17:40.928Z,100516.00
2018-09-14T06:20:08.484Z,100526.00
2018-09-14T06:25:40.524Z,100529.00
2018-09-14T06:31:18.609Z,100537.00
2018-09-14T06:33:46.138Z,100538.00
2018-09-14T06:36:13.677Z,100532.00
2018-09-14T06:38:44.986Z,100539.00
2018-09-14T06:41:12.523Z,100540.00
2018-09-14T06:46:59.507Z,100535.00
2018-09-14T06:49:27.081Z,100536.00
2018-09-14T06:51:54.621Z,100532.00
2018-09-14T06:54:22.196Z,100546.00
2018-09-14T06:56:49.719Z,100542.00
2018-09-14T06:59:17.272Z,100547.00
2018-09-14T07:01:44.815Z,100544.00
2018-09-14T07:04:12.345Z,100537.00
2018-09-14T07:06:39.894Z,100547.00
2018-09-14T07:09:08.432Z,100551.00
2018-09-14T07:11:35.994Z,100552.00
2018-09-14T07:14:03.643Z,100552.00
2018-09-14T07:16:31.149Z,100563.00
2018-09-14T07:18:58.659Z,100563.00
2018-09-14T07:21:26.169Z,100569.00
2018-09-14T07:23:53.685Z,100568.00
2018-09-14T07:26:21.221Z,100562.00
2018-09-14T07:28:49.011Z,100565.00
2018-09-14T07:31:16.490Z,100571.00
2018-09-14T07:33:44.040Z,100564.00
2018-09-14T07:36:11.780Z,100575.00
2018-09-14T07:38:39.331Z,100574.00
2018-09-14T07:41:07.009Z,100578.00
2018-09-14T07:43:34.560Z,100571.00
2018-09-14T07:46:02.049Z,100577.00
2018-09-14T07:48:29.540Z,100570.00
2018-09-14T07:50:57.038Z,100581.00
2018-09-14T07:53:24.556Z,100580.00
2018-09-14T07:55:52.116Z,100586.00
2018-09-14T07:58:19.612Z,100582.00
2018-09-14T08:00:47.151Z,100593.00
2018-09-14T08:03:14.740Z,100597.00
2018-09-14T08:05:42.265Z,100597.00
2018-09-14T08:08:09.759Z,100591.00
2018-09-14T08:10:37.252Z,100597.00
2018-09-14T08:13:05.024Z,100595.00
2018-09-14T08:15:32.542Z,100602.00
2018-09-14T08:18:00.036Z,100611.00
2018-09-14T08:20:27.552Z,100612.00
2018-09-14T08:22:55.053Z,100604.00
2018-09-14T08:25:32.498Z,100609.00
2018-09-14T08:28:00.000Z,100606.00
2018-09-14T08:30:27.513Z,100618.00
2018-09-14T08:32:55.015Z,100624.00
2018-09-14T08:35:22.519Z,100618.00
2018-09-14T08:37:50.016Z,100625.00
2018-09-14T08:40:17.582Z,100621.00
2018-09-14T08:42:45.069Z,100622.00
2018-09-14T08:45:12.575Z,100630.00
2018-09-14T08:47:40.069Z,100628.00
2018-09-14T08:50:07.587Z,100623.00
2018-09-14T08:52:35.088Z,100626.00
2018-09-14T08:55:02.607Z,100626.00
2018-09-14T08:57:30.143Z,100630.00
2018-09-14T08:59:57.648Z,100628.00
2018-09-14T09:02:25.174Z,100628.00
2018-09-14T09:04:52.667Z,100633.00
2018-09-14T09:07:21.187Z,100630.00
2018-09-14T09:09:48.664Z,100636.00
2018-09-14T09:12:16.167Z,100629.00
2018-09-14T09:14:43.646Z,100628.00
2018-09-14T09:17:11.144Z,100641.00
2018-09-14T09:19:38.647Z,100637.00
2018-09-14T09:22:06.436Z,100638.00
2018-09-14T09:24:33.938Z,100636.00
2018-09-14T09:27:01.450Z,100626.00
2018-09-14T09:29:29.029Z,100634.00
2018-09-14T09:31:56.468Z,100628.00
2018-09-14T09:34:23.971Z,100631.00
2018-09-14T09:36:51.472Z,100634.00
2018-09-14T09:39:18.980Z,100628.00
2018-09-14T09:41:46.488Z,100626.00
2018-09-14T09:44:13.981Z,100623.00
2018-09-14T09:46:41.493Z,100622.00
2018-09-14T09:49:08.989Z,100617.00
2018-09-14T09:51:36.498Z,100611.00
2018-09-14T09:54:03.989Z,100602.00
2018-09-14T09:56:31.575Z,100613.00
2018-09-14T09:58:59.015Z,100614.00
2018-09-14T10:01:28.632Z,100619.00
2018-09-14T10:04:02.048Z,100629.00
2018-09-14T10:06:29.512Z,100626.00
2018-09-14T10:08:57.311Z,100633.00
2018-09-14T10:11:36.009Z,100630.00
2018-09-14T10:14:04.227Z,100624.00
2018-09-14T10:16:31.752Z,100636.00
2018-09-14T10:18:59.264Z,100638.00
2018-09-14T10:21:26.905Z,100633.00
2018-09-14T10:23:54.328Z,100643.00
2018-09-14T10:26:21.828Z,100628.00
2018-09-14T10:28:49.387Z,100620.00
2018-09-14T10:31:20.595Z,100620.00
2018-09-14T10:33:48.100Z,100615.00
2018-09-14T10:36:15.627Z,100606.00
2018-09-14T10:38:43.144Z,100607.00
2018-09-14T10:41:10.652Z,100616.00
2018-09-14T10:43:38.179Z,100623.00
2018-09-14T10:46:05.788Z,100609.00
2018-09-14T10:48:33.295Z,100611.00
2018-09-14T10:51:00.782Z,100603.00
2018-09-14T10:53:28.301Z,100603.00
2018-09-14T10:55:55.799Z,100602.00
2018-09-14T10:58:23.335Z,100609.00
2018-09-14T11:00:50.887Z,100614.00
2018-09-14T11:03:18.364Z,100615.00
2018-09-14T11:05:45.855Z,100610.00
2018-09-14T11:08:13.392Z,100602.00
2018-09-14T11:10:40.894Z,100607.00
2018-09-14T11:13:08.421Z,100608.00
2018-09-14T11:15:35.904Z,100610.00
2018-09-14T11:18:03.398Z,100609.00
2018-09-14T11:20:30.976Z,100603.00
2018-09-14T11:22:58.452Z,100602.00
2018-09-14T11:25:26.046Z,100609.00
2018-09-14T11:27:53.512Z,100603.00
2018-09-14T11:30:21.020Z,100601.00
2018-09-14T11:32:48.531Z,100598.00
2018-09-14T11:35:16.134Z,100606.00
2018-09-14T11:37:43.643Z,100600.00
2018-09-14T11:40:11.152Z,100604.00
2018-09-14T11:42:38.654Z,100597.00
2018-09-14T11:45:06.233Z,100603.00
2018-09-14T11:47:33.699Z,100598.00
2018-09-14T11:50:01.203Z,100600.00
2018-09-14T11:52:28.699Z,100600.00
2018-09-14T11:54:56.198Z,100599.00
2018-09-14T11:57:23.697Z,100606.00
2018-09-14T11:59:51.231Z,100605.00
2018-09-14T12:02:20.223Z,100595.00
2018-09-14T12:04:47.766Z,100602.00
2018-09-14T12:07:15.308Z,100598.00
2018-09-14T12:09:42.865Z,100598.00
2018-09-14T12:12:10.387Z,100583.00
2018-09-14T12:14:37.915Z,100595.00
2018-09-14T12:17:05.450Z,100586.00
2018-09-14T12:19:32.999Z,100582.00
2018-09-14T12:22:00.535Z,100593.00
2018-09-14T12:24:28.083Z,100586.00
2018-09-14T12:26:55.606Z,100590.00
2018-09-14T12:29:23.132Z,100588.00
2018-09-14T12:31:50.656Z,100594.00
2018-09-14T12:34:18.191Z,100590.00
2018-09-14T12:36:45.738Z,100597.00
2018-09-14T12:39:13.275Z,100589.00
2018-09-14T12:41:40.821Z,100597.00
2018-09-14T12:44:08.380Z,100600.00
2018-09-14T12:46:35.914Z,100597.00
2018-09-14T12:49:03.475Z,100589.00
2018-09-14T12:51:31.007Z,100593.00
2018-09-14T12:53:58.535Z,100583.00
2018-09-14T12:56:26.092Z,100588.00
2018-09-14T12:58:53.644Z,100583.00
2018-09-14T13:01:21.195Z,100586.00
2018-09-14T13:03:48.715Z,100580.00
2018-09-14T13:06:16.259Z,100575.00
2018-09-14T13:08:43.805Z,100570.00
2018-09-14T13:11:11.332Z,100577.00
2018-09-14T13:13:38.852Z,100571.00
2018-09-14T13:16:06.444Z,100576.00
2018-09-14T13:18:33.970Z,100566.00
2018-09-14T13:21:01.499Z,100573.00
2018-09-14T13:23:29.035Z,100562.00
2018-09-14T13:25:56.562Z,100568.00
2018-09-14T13:28:24.095Z,100560.00
2018-09-14T13:30:51.623Z,100567.00
2018-09-14T13:33:19.151Z,100568.00
2018-09-14T13:35:46.692Z,100567.00
2018-09-14T13:38:14.218Z,100568.00
2018-09-14T13:40:41.772Z,100565.00
2018-09-14T13:43:09.316Z,100562.00
2018-09-14T13:45:36.848Z,100555.00
2018-09-14T13:48:04.397Z,100563.00
2018-09-14T13:50:31.953Z,100568.00
2018-09-14T13:52:59.504Z,100560.00
2018-09-14T13:55:27.041Z,100558.00
2018-09-14T13:57:54.591Z,100555.00
2018-09-14T14:00:22.127Z,100552.00
2018-09-14T14:02:49.688Z,100556.00
2018-09-14T14:05:17.241Z,100547.00
2018-09-14T14:07:44.772Z,100553.00
2018-09-14T14:10:12.330Z,100548.00
2018-09-14T14:12:39.872Z,100552.00
2018-09-14T14:15:07.447Z,100541.00
2018-09-14T14:17:35.070Z,100543.00
2018-09-14T14:20:02.577Z,100548.00
2018-09-14T14:22:30.103Z,100540.00
2018-09-14T14:24:57.663Z,100543.00
2018-09-14T14:27:25.199Z,100535.00
2018-09-14T14:29:52.739Z,100530.00
2018-09-14T14:32:20.287Z,100537.00
2018-09-14T14:34:47.879Z,100533.00
2018-09-14T14:37:15.395Z,100529.00
2018-09-14T14:39:42.931Z,100518.00
2018-09-14T14:42:10.488Z,100517.00
2018-09-14T14:44:38.006Z,100519.00
2018-09-14T14:47:06.322Z,100527.00
2018-09-14T14:49:33.865Z,100523.00
2018-09-14T14:52:01.405Z,100517.00
2018-09-14T14:54:28.930Z,100509.00
2018-09-14T14:56:56.462Z,100510.00
2018-09-14T14:59:24.028Z,100514.00
2018-09-14T15:01:51.576Z,100510.00
2018-09-14T15:04:19.132Z,100516.00
2018-09-14T15:06:46.705Z,100516.00
2018-09-14T15:09:14.230Z,100512.00
2018-09-14T15:11:41.776Z,100513.00
2018-09-14T15:14:09.303Z,100507.00
2018-09-14T15:16:36.831Z,100510.00
2018-09-14T15:19:04.651Z,100508.00
2018-09-14T15:21:32.281Z,100510.00
2018-09-14T15:23:59.835Z,100505.00
2018-09-14T15:26:27.398Z,100513.00
2018-09-14T15:28:54.939Z,100506.00
2018-09-14T15:31:22.491Z,100506.00
2018-09-14T15:33:50.020Z,100515.00
2018-09-14T15:36:17.558Z,100512.00
2018-09-14T15:38:45.068Z,100511.00
2018-09-14T15:41:12.600Z,100507.00
2018-09-14T15:43:40.195Z,100494.00
2018-09-14T15:46:07.712Z,100501.00
2018-09-14T15:48:35.252Z,100503.00
2018-09-14T15:51:02.803Z,100497.00
2018-09-14T15:53:30.335Z,100497.00
2018-09-14T15:55:57.877Z,100501.00
2018-09-14T15:58:25.441Z,100503.00
2018-09-14T16:00:53.025Z,100497.00
2018-09-14T16:03:20.577Z,100492.00
2018-09-14T16:05:48.109Z,100497.00
2018-09-14T16:08:15.673Z,100493.00
2018-09-14T16:10:43.196Z,100490.00
2018-09-14T16:13:10.739Z,100492.00
2018-09-14T16:15:38.275Z,100484.00
2018-09-14T16:18:05.822Z,100483.00
2018-09-14T16:20:33.380Z,100481.00
2018-09-14T16:23:00.908Z,100478.00
2018-09-14T16:25:28.442Z,100476.00
2018-09-14T16:27:55.992Z,100476.00
2018-09-14T16:30:23.526Z,100461.00
2018-09-14T16:32:51.400Z,100465.00
2018-09-14T16:35:18.951Z,100467.00
2018-09-14T16:37:46.490Z,100469.00
2018-09-14T16:40:14.027Z,100478.00
2018-09-14T16:42:41.583Z,100470.00
2018-09-14T16:45:09.129Z,100468.00
2018-09-14T16:47:36.676Z,100471.00
2018-09-14T16:50:04.237Z,100470.00
2018-09-14T16:52:31.782Z,100472.00
2018-09-14T16:54:59.552Z,100465.00
2018-09-14T16:57:27.103Z,100470.00
2018-09-14T16:59:54.605Z,100470.00
2018-09-14T17:02:22.122Z,100468.00
2018-09-14T17:04:49.632Z,100481.00
2018-09-14T17:07:17.176Z,100468.00
2018-09-14T17:09:44.711Z,100478.00
2018-09-14T17:12:12.248Z,100466.00
2018-09-14T17:14:39.788Z,100473.00
2018-09-14T17:17:07.331Z,100472.00
2018-09-14T17:19:34.866Z,100464.00
2018-09-14T17:22:02.415Z,100464.00
2018-09-14T17:24:29.935Z,100475.00
2018-09-14T17:26:57.488Z,100466.00
2018-09-14T17:29:25.025Z,100474.00
2018-09-14T17:31:52.568Z,100461.00
2018-09-14T17:34:20.112Z,100466.00
2018-09-14T17:36:47.684Z,100452.00
2018-09-14T17:39:22.053Z,100459.00
2018-09-14T17:41:49.592Z,100455.00
2018-09-14T17:44:17.127Z,100471.00
2018-09-14T17:46:44.671Z,100460.00
2018-09-14T17:49:12.212Z,100471.00
2018-09-14T17:51:39.755Z,100472.00
2018-09-14T17:54:07.286Z,100476.00
2018-09-14T17:56:34.823Z,100476.00
2018-09-14T17:59:02.371Z,100485.00
2018-09-14T18:01:29.880Z,100469.00
2018-09-14T18:03:57.378Z,100473.00
2018-09-14T18:06:24.902Z,100470.00
2018-09-14T18:08:52.404Z,100472.00
2018-09-14T18:11:19.904Z,100475.00
2018-09-14T18:13:47.419Z,100476.00
2018-09-14T18:16:14.983Z,100472.00
2018-09-14T18:18:42.456Z,100470.00
2018-09-14T18:21:09.964Z,100470.00
2018-09-14T18:23:37.462Z,100475.00
2018-09-14T18:26:04.984Z,100479.00
2018-09-14T18:28:32.482Z,100481.00
2018-09-14T18:30:59.976Z,100480.00
2018-09-14T18:33:27.475Z,100483.00
2018-09-14T18:35:55.044Z,100478.00
2018-09-14T18:38:22.499Z,100478.00
2018-09-14T18:40:49.992Z,100481.00
2018-09-14T18:43:17.492Z,100477.00
2018-09-14T18:45:44.999Z,100476.00
2018-09-14T18:48:12.500Z,100482.00
2018-09-14T18:50:39.998Z,100483.00
2018-09-14T18:53:07.536Z,100488.00
2018-09-14T18:55:35.035Z,100485.00
2018-09-14T18:58:02.556Z,100493.00
2018-09-14T19:00:30.076Z,100491.00
2018-09-14T19:02:57.588Z,100500.00
2018-09-14T19:05:25.184Z,100488.00
2018-09-14T19:07:52.681Z,100500.00
2018-09-14T19:10:20.197Z,100500.00
2018-09-14T19:12:47.716Z,100499.00
2018-09-14T19:15:15.206Z,100497.00
2018-09-14T19:17:42.699Z,100503.00
2018-09-14T19:20:10.212Z,100500.00
2018-09-14T19:22:41.150Z,100506.00
2018-09-14T19:25:08.666Z,100508.00
2018-09-14T19:27:36.200Z,100502.00
2018-09-14T19:30:04.051Z,100504.00
2018-09-14T19:32:31.558Z,100494.00
2018-09-14T19:34:59.099Z,100494.00
2018-09-14T19:37:26.595Z,100505.00
2018-09-14T19:39:54.152Z,100499.00
2018-09-14T19:42:21.664Z,100495.00
2018-09-14T19:44:49.178Z,100490.00
2018-09-14T19:47:16.697Z,100493.00
2018-09-14T19:49:44.219Z,100489.00
2018-09-14T19:52:11.751Z,100494.00
2018-09-14T19:54:39.256Z,100492.00
2018-09-14T19:57:06.772Z,100492.00
2018-09-14T19:59:34.317Z,100483.00
2018-09-14T20:02:01.828Z,100485.00
2018-09-14T20:04:29.328Z,100484.00
2018-09-14T20:06:56.811Z,100478.00
2018-09-14T20:09:24.334Z,100494.00
2018-09-14T20:11:51.827Z,100478.00
2018-09-14T20:14:19.393Z,100472.00
2018-09-14T20:16:46.855Z,100474.00
2018-09-14T20:19:14.360Z,100470.00
2018-09-14T20:21:41.867Z,100476.00
2018-09-14T20:24:09.377Z,100467.00
2018-09-14T20:26:36.887Z,100462.00
2018-09-14T20:29:04.413Z,100471.00
2018-09-14T20:31:31.907Z,100469.00
2018-09-14T20:33:59.432Z,100472.00
2018-09-14T20:36:26.914Z,100471.00
2018-09-14T20:38:54.412Z,100467.00
2018-09-14T20:41:21.933Z,100455.00
2018-09-14T20:43:49.443Z,100462.00
2018-09-14T20:46:16.999Z,100459.00
2018-09-14T20:48:44.509Z,100455.00
2018-09-14T20:51:12.005Z,100464.00
2018-09-14T20:53:39.513Z,100458.00
2018-09-14T20:56:07.025Z,100467.00
2018-09-14T20:58:34.539Z,100465.00
2018-09-14T21:01:02.043Z,100459.00
2018-09-14T21:03:29.549Z,100462.00
2018-09-14T21:05:57.053Z,100470.00
2018-09-14T21:08:24.792Z,100461.00
2018-09-14T21:10:52.279Z,100463.00
2018-09-14T21:13:23.486Z,100468.00
2018-09-14T21:15:50.984Z,100459.00
2018-09-14T21:18:18.497Z,100461.00
2018-09-14T21:20:45.982Z,100461.00
2018-09-14T21:23:13.488Z,100462.00
2018-09-14T21:25:41.003Z,100452.00
2018-09-14T21:28:08.512Z,100445.00
2018-09-14T21:30:36.023Z,100453.00
2018-09-14T21:33:03.522Z,100455.00
2018-09-14T21:35:31.016Z,100456.00
2018-09-14T21:37:58.521Z,100458.00
2018-09-14T21:40:26.073Z,100469.00
2018-09-14T21:42:53.571Z,100465.00
2018-09-14T21:45:21.070Z,100468.00
2018-09-14T21:47:48.569Z,100461.00
2018-09-14T21:50:16.075Z,100457.00
2018-09-14T21:52:43.584Z,100467.00
2018-09-14T21:55:11.111Z,100464.00
2018-09-14T21:57:38.649Z,100458.00
2018-09-14T22:00:13.762Z,100467.00
2018-09-14T22:02:41.343Z,100461.00
2018-09-14T22:05:08.895Z,100457.00
2018-09-14T22:07:36.436Z,100459.00
2018-09-14T22:10:04.491Z,100464.00
2018-09-14T22:12:32.014Z,100452.00
2018-09-14T22:14:59.550Z,100450.00
2018-09-14T22:17:27.092Z,100446.00
2018-09-14T22:19:54.607Z,100446.00
2018-09-14T22:22:22.130Z,100453.00
2018-09-14T22:24:49.663Z,100451.00
2018-09-14T22:27:17.202Z,100449.00
2018-09-14T22:29:44.731Z,100454.00
2018-09-14T22:32:12.258Z,100442.00
2018-09-14T22:34:39.793Z,100444.00
2018-09-14T22:37:07.328Z,100431.00
2018-09-14T22:39:34.856Z,100439.00
2018-09-14T22:42:02.385Z,100440.00
2018-09-14T22:44:29.919Z,100443.00
2018-09-14T22:46:57.440Z,100450.00
2018-09-14T22:49:24.992Z,100443.00
2018-09-14T22:51:52.527Z,100449.00
2018-09-14T22:54:20.043Z,100454.00
2018-09-14T22:56:47.572Z,100438.00
2018-09-14T22:59:15.084Z,100438.00
2018-09-14T23:01:42.583Z,100443.00
2018-09-14T23:04:10.089Z,100441.00
2018-09-14T23:06:37.575Z,100435.00
2018-09-14T23:09:07.060Z,100441.00
2018-09-14T23:11:34.515Z,100433.00
2018-09-14T23:14:02.011Z,100424.00
2018-09-14T23:16:29.512Z,100428.00
2018-09-14T23:18:57.004Z,100424.00
2018-09-14T23:21:24.503Z,100432.00
2018-09-14T23:23:52.008Z,100430.00
2018-09-14T23:26:21.573Z,100430.00
2018-09-14T23:28:49.051Z,100418.00
2018-09-14T23:31:16.559Z,100424.00
2018-09-14T23:33:44.056Z,100427.00
2018-09-14T23:36:11.547Z,100437.00
2018-09-14T23:38:39.030Z,100428.00
2018-09-14T23:41:06.532Z,100421.00
2018-09-14T23:43:34.035Z,100428.00
2018-09-14T23:46:01.540Z,100424.00
2018-09-14T23:48:29.048Z,100421.00
2018-09-14T23:50:56.533Z,100421.00
2018-09-14T23:53:24.043Z,100435.00
2018-09-14T23:55:51.552Z,100430.00
2018-09-14T23:58:19.042Z,100428.00
